Change the Weather History Date:

Monday, May 13, 2013

  Actual Average (KCHS) Record (KCHS)
Temperature  
Mean Temperature 63 °F 72 °F  
Max Temperature 73 °F 83 °F 95 °F (2000)
Min Temperature 53 °F 61 °F 44 °F (1941)
Degree Days  
Heating Degree Days 2 0  
Month to date heating degree days 8  
Since 1 July heating degree days 1971  
Cooling Degree Days 0 7  
Month to date cooling degree days 76  
Year to date cooling degree days 194  
Growing Degree Days 13 (Base 50)    
Moisture  
Dew Point 42 °F    
Average Humidity 47    
Maximum Humidity 82    
Minimum Humidity 29    
Precipitation  
Precipitation 0.00 in 0.08 in 1.75 in (1954)
Month to date precipitation 1.18  
Year to date precipitation 14.47  
Sea Level Pressure  
Sea Level Pressure 30.08 in    
Wind  
Wind Speed 4 mph (North)    
Max Wind Speed 13 mph    
Max Gust Speed 18 mph    
Visibility 9 miles    
Events      
T = Trace of Precipitation, MM = Missing Value Source: NWS Daily Summary

Daily Weather History Graph

Daily Weather History Graph

Search for Another Location

Airport or City:

Trip Planner

Search our weather history database for the weather conditions in past years. The results will help you decide how hot, cold, wet, or windy it might be!

Date:

Astronomy

May. 13, 2013 Rise Set
Actual Time 6:21 AM EDT 8:11 PM EDT
Civil Twilight 5:54 AM EDT 8:38 PM EDT
Nautical Twilight 5:21 AM EDT 9:11 PM EDT
Astronomical Twilight 4:46 AM EDT 9:46 PM EDT
Moon 9:07 AM EDT (5/13) 11:19 PM EDT (5/13)
Length of Visible Light 14h 44m
Length of Day
13h 50m
Waxing Crescent, 12% of the Moon is Illuminated
May 13
Waxing Crescent
May 18
First Quarter
May 25
Full
May 31
Last Quarter
Jun 8
New

Hourly Weather History & Observations

Time (EDT) Temp. Dew Point Humidity Pressure Visibility Wind Dir Wind Speed Gust Speed Precip Events Conditions
12:15 AM 64.4 °F 46.4 °F 52% 30.01 in 10.0 mi Calm Calm - N/A   Clear
12:35 AM 64.4 °F 44.6 °F 49% 30.01 in 7.0 mi Calm Calm - N/A   Clear
12:55 AM 62.6 °F 44.6 °F 52% 30.01 in 10.0 mi Calm Calm - N/A   Clear
1:15 AM 64.4 °F 44.6 °F 49% 30.01 in 10.0 mi NW 3.5 mph - N/A   Clear
1:35 AM 62.6 °F 44.6 °F 52% 30.01 in 10.0 mi Calm Calm - N/A   Clear
1:55 AM 60.8 °F 44.6 °F 55% 30.01 in 10.0 mi Calm Calm - N/A   Clear
2:15 AM 60.8 °F 44.6 °F 55% 30.01 in 10.0 mi Calm Calm - N/A   Clear
2:35 AM 59.0 °F 44.6 °F 59% 30.01 in 10.0 mi Calm Calm - N/A   Clear
2:55 AM 59.0 °F 44.6 °F 59% 30.01 in 7.0 mi WSW 3.5 mph - N/A   Clear
3:15 AM 57.2 °F 44.6 °F 63% 30.00 in 10.0 mi Calm Calm - N/A   Clear
3:35 AM 57.2 °F 44.6 °F 63% 30.00 in 10.0 mi Calm Calm - N/A   Clear
3:55 AM 60.8 °F 44.6 °F 55% 30.01 in 10.0 mi North 4.6 mph - N/A   Clear
4:15 AM 62.6 °F 42.8 °F 48% 30.01 in 10.0 mi NNE 5.8 mph - N/A   Clear
4:35 AM 62.6 °F 42.8 °F 48% 30.01 in 7.0 mi North 4.6 mph - N/A   Clear
4:55 AM 62.6 °F 44.6 °F 52% 30.02 in 10.0 mi NNE 6.9 mph - N/A   Clear
5:15 AM 60.8 °F 44.6 °F 55% 30.03 in 7.0 mi North 6.9 mph - N/A   Clear
5:35 AM 60.8 °F 44.6 °F 55% 30.03 in 10.0 mi NNE 10.4 mph - N/A   Clear
5:55 AM 60.8 °F 42.8 °F 52% 30.03 in 7.0 mi North 9.2 mph - N/A   Clear
6:15 AM 59.0 °F 42.8 °F 55% 30.05 in 10.0 mi NNE 8.1 mph - N/A   Unknown
6:35 AM 59.0 °F 42.8 °F 55% 30.05 in 7.0 mi North 5.8 mph - N/A   Unknown
6:55 AM 59.0 °F 42.8 °F 55% 30.06 in 7.0 mi North 6.9 mph - N/A   Unknown
7:15 AM 59.0 °F 41.0 °F 51% 30.06 in 10.0 mi NNE 9.2 mph - N/A   Unknown
7:35 AM 59.0 °F 41.0 °F 51% 30.07 in 7.0 mi NNE 9.2 mph 16.1 mph N/A   Clear
7:55 AM 59.0 °F 39.2 °F 48% 30.07 in 10.0 mi NNE 8.1 mph - N/A   Clear
8:15 AM 59.0 °F 39.2 °F 48% 30.08 in 10.0 mi NNE 9.2 mph - N/A   Clear
8:35 AM 59.0 °F 39.2 °F 48% 30.09 in 10.0 mi NNE 8.1 mph - N/A   Clear
8:55 AM 59.0 °F 39.2 °F 48% 30.10 in 10.0 mi NNE 8.1 mph - N/A   Clear
9:15 AM 60.8 °F 41.0 °F 48% 30.11 in 10.0 mi NNE 5.8 mph - N/A   Clear
9:35 AM 60.8 °F 39.2 °F 45% 30.12 in 7.0 mi North 6.9 mph - N/A   Clear
9:55 AM 60.8 °F 41.0 °F 48% 30.13 in 10.0 mi NNE 10.4 mph - N/A   Clear
10:15 AM 62.6 °F 41.0 °F 45% 30.13 in 10.0 mi North 6.9 mph - N/A   Clear
10:35 AM 64.4 °F 41.0 °F 42% 30.13 in 10.0 mi North 8.1 mph - N/A   Clear
10:55 AM 64.4 °F 39.2 °F 40% 30.13 in 4.0 mi NNE 9.2 mph 16.1 mph N/A   Haze
11:15 AM 64.4 °F 37.4 °F 37% 30.14 in 7.0 mi North 11.5 mph - N/A   Clear
11:35 AM 66.2 °F 39.2 °F 37% 30.15 in 10.0 mi North 10.4 mph 18.4 mph N/A   Clear
11:55 AM 66.2 °F 39.2 °F 37% 30.15 in 10.0 mi North 9.2 mph 17.3 mph N/A   Clear
12:15 PM 66.2 °F 39.2 °F 37% 30.14 in 10.0 mi North 9.2 mph 17.3 mph N/A   Clear
12:35 PM 66.2 °F 37.4 °F 35% 30.14 in 7.0 mi North 12.7 mph 18.4 mph N/A   Clear
12:55 PM 68.0 °F 37.4 °F 33% 30.14 in 10.0 mi NNE 11.5 mph - N/A   Clear
1:15 PM 68.0 °F 37.4 °F 33% 30.13 in 7.0 mi North 10.4 mph 17.3 mph N/A   Clear
1:35 PM 68.0 °F 37.4 °F 33% 30.13 in 10.0 mi North 10.4 mph 17.3 mph N/A   Clear
2:15 PM 69.8 °F 39.2 °F 33% 30.12 in 7.0 mi North 6.9 mph - N/A   Clear
2:35 PM 69.8 °F 39.2 °F 33% 30.12 in 10.0 mi North 10.4 mph - N/A   Clear
2:55 PM 71.6 °F 39.2 °F 31% 30.11 in 10.0 mi NNW 8.1 mph - N/A   Clear
3:15 PM 69.8 °F 37.4 °F 31% 30.11 in 7.0 mi North 11.5 mph 16.1 mph N/A   Clear
3:35 PM 71.6 °F 39.2 °F 31% 30.10 in 10.0 mi North 8.1 mph - N/A   Clear
3:55 PM 71.6 °F 39.2 °F 31% 30.10 in 10.0 mi North 8.1 mph 16.1 mph N/A   Clear
4:15 PM 71.6 °F 39.2 °F 31% 30.08 in 10.0 mi North 9.2 mph - N/A   Clear
5:35 PM 73.4 °F 39.2 °F 29% 30.06 in 7.0 mi North 9.2 mph - N/A   Clear
5:55 PM 73.4 °F 39.2 °F 29% 30.05 in 10.0 mi North 8.1 mph - N/A   Clear
6:15 PM 73.4 °F 39.2 °F 29% 30.05 in 7.0 mi North 9.2 mph - N/A   Clear
6:35 PM 73.4 °F 39.2 °F 29% 30.05 in 10.0 mi NNW 5.8 mph - N/A   Clear
6:55 PM 71.6 °F 39.2 °F 31% 30.05 in 10.0 mi North 5.8 mph - N/A   Clear
7:15 PM 71.6 °F 39.2 °F 31% 30.05 in 10.0 mi North 6.9 mph - N/A   Clear
7:35 PM 71.6 °F 39.2 °F 31% 30.05 in 7.0 mi North 4.6 mph - N/A   Clear
8:15 PM 69.8 °F 37.4 °F 31% 30.07 in 10.0 mi Calm Calm - N/A   Clear
8:35 PM 68.0 °F 39.2 °F 35% 30.08 in 10.0 mi NNW 3.5 mph - N/A   Clear
8:55 PM 66.2 °F 39.2 °F 37% 30.09 in 10.0 mi NNW 3.5 mph - N/A   Clear
9:15 PM 66.2 °F 39.2 °F 37% 30.10 in 10.0 mi Calm Calm - N/A   Clear
9:35 PM 60.8 °F 48.2 °F 63% 30.10 in 10.0 mi Calm Calm - N/A   Clear
9:55 PM 57.2 °F 48.2 °F 72% 30.11 in 10.0 mi Calm Calm - N/A   Clear
10:15 PM 57.2 °F 46.4 °F 67% 30.12 in 10.0 mi Calm Calm - N/A   Clear
10:35 PM 57.2 °F 46.4 °F 67% 30.13 in 10.0 mi Calm Calm - N/A   Clear
10:55 PM 55.4 °F 46.4 °F 72% 30.14 in 7.0 mi Calm Calm - N/A   Clear
11:15 PM 53.6 °F 48.2 °F 82% 30.14 in 10.0 mi Calm Calm - N/A   Clear
11:35 PM 53.6 °F 48.2 °F 82% 30.15 in 10.0 mi Calm Calm - N/A   Clear
11:55 PM 53.6 °F 46.4 °F 77% 30.15 in 10.0 mi Calm Calm - N/A   Clear